createdAt,value
2018-05-06T00:00:52.807Z,1023.09
2018-05-06T00:01:52.832Z,1023.09
2018-05-06T00:02:52.922Z,1023.11
2018-05-06T00:03:52.890Z,1023.1
2018-05-06T00:04:52.791Z,1023.13
2018-05-06T00:05:53.249Z,1023.08
2018-05-06T00:06:52.794Z,1023.06
2018-05-06T00:07:52.890Z,1023.09
2018-05-06T00:08:52.805Z,1023.06
2018-05-06T00:09:52.824Z,1023.09
2018-05-06T00:10:52.821Z,1023.05
2018-05-06T00:11:52.779Z,1023.04
2018-05-06T00:12:52.793Z,1023.07
2018-05-06T00:13:52.792Z,1023.03
2018-05-06T00:14:52.849Z,1023.05
2018-05-06T00:15:52.822Z,1023.06
2018-05-06T00:16:52.793Z,1023.09
2018-05-06T00:17:52.862Z,1023.06
2018-05-06T00:18:52.796Z,1023.15
2018-05-06T00:19:52.799Z,1023.15
2018-05-06T00:20:52.779Z,1023.09
2018-05-06T00:21:52.776Z,1023.13
2018-05-06T00:22:52.768Z,1023.16
2018-05-06T00:23:52.788Z,1023.18
2018-05-06T00:24:52.799Z,1023.2
2018-05-06T00:25:52.801Z,1023.2
2018-05-06T00:26:52.783Z,1023.23
2018-05-06T00:27:52.796Z,1023.25
2018-05-06T00:28:52.801Z,1023.23
2018-05-06T00:29:52.775Z,1023.23
2018-05-06T00:30:52.769Z,1023.22
2018-05-06T00:31:52.799Z,1023.23
2018-05-06T00:32:57.715Z,1023.25
2018-05-06T00:33:52.771Z,1023.2
2018-05-06T00:34:52.789Z,1023.21
2018-05-06T00:35:52.771Z,1023.18
2018-05-06T00:36:52.795Z,1023.28
2018-05-06T00:37:52.787Z,1023.22
2018-05-06T00:38:52.806Z,1023.22
2018-05-06T00:39:52.779Z,1023.24
2018-05-06T00:40:52.816Z,1023.24
2018-05-06T00:41:52.774Z,1023.24
2018-05-06T00:42:52.780Z,1023.2
2018-05-06T00:43:52.768Z,1023.21
2018-05-06T00:44:52.867Z,1023.18
2018-05-06T00:45:52.799Z,1023.15
2018-05-06T00:46:52.763Z,1023.23
2018-05-06T00:47:52.926Z,1023.23
2018-05-06T00:48:53.493Z,1023.18
2018-05-06T00:49:53.647Z,1023.2
2018-05-06T00:50:53.543Z,1023.22
2018-05-06T00:51:53.514Z,1023.2
2018-05-06T00:52:53.539Z,1023.19
2018-05-06T00:53:53.596Z,1023.21
2018-05-06T00:54:53.653Z,1023.2
2018-05-06T00:55:53.525Z,1023.22
2018-05-06T00:56:53.461Z,1023.17
2018-05-06T00:57:53.313Z,1023.17
2018-05-06T00:58:53.493Z,1023.28
2018-05-06T00:59:53.476Z,1023.25
2018-05-06T01:00:53.487Z,1023.24
2018-05-06T01:01:53.555Z,1023.24
2018-05-06T01:02:53.504Z,1023.25
2018-05-06T01:03:53.538Z,1023.31
2018-05-06T01:04:53.566Z,1023.25
2018-05-06T01:05:53.569Z,1023.31
2018-05-06T01:06:53.506Z,1023.32
2018-05-06T01:07:53.574Z,1023.3
2018-05-06T01:08:53.580Z,1023.35
2018-05-06T01:09:53.604Z,1023.32
2018-05-06T01:10:53.504Z,1023.35
2018-05-06T01:11:53.478Z,1023.34
2018-05-06T01:12:53.512Z,1023.36
2018-05-06T01:13:53.790Z,1023.33
2018-05-06T01:14:53.537Z,1023.34
2018-05-06T01:15:53.531Z,1023.33
2018-05-06T01:16:53.559Z,1023.32
2018-05-06T01:17:53.538Z,1023.33
2018-05-06T01:18:53.556Z,1023.35
2018-05-06T01:19:53.518Z,1023.36
2018-05-06T01:20:53.697Z,1023.41
2018-05-06T01:21:53.483Z,1023.33
2018-05-06T01:22:53.484Z,1023.35
2018-05-06T01:23:53.530Z,1023.4
2018-05-06T01:24:53.583Z,1023.37
2018-05-06T01:25:53.479Z,1023.36
2018-05-06T01:26:53.505Z,1023.36
2018-05-06T01:27:53.507Z,1023.38
2018-05-06T01:28:53.476Z,1023.36
2018-05-06T01:29:53.537Z,1023.41
2018-05-06T01:30:53.504Z,1023.35
2018-05-06T01:31:53.496Z,1023.44
2018-05-06T01:32:53.322Z,1023.38
2018-05-06T01:33:53.556Z,1023.36
2018-05-06T01:34:53.573Z,1023.37
2018-05-06T01:35:53.483Z,1023.43
2018-05-06T01:36:53.490Z,1023.41
2018-05-06T01:37:53.551Z,1023.41
2018-05-06T01:38:53.471Z,1023.41
2018-05-06T01:39:53.499Z,1023.43
2018-05-06T01:40:53.538Z,1023.41
2018-05-06T01:41:53.468Z,1023.42
2018-05-06T01:42:53.500Z,1023.37
2018-05-06T01:43:53.472Z,1023.43
2018-05-06T01:44:53.532Z,1023.39
2018-05-06T01:45:53.455Z,1023.35
2018-05-06T01:46:53.463Z,1023.43
2018-05-06T01:47:53.478Z,1023.42
2018-05-06T01:48:52.771Z,1023.41
2018-05-06T01:49:52.829Z,1023.43
2018-05-06T01:50:54.357Z,1023.42
2018-05-06T01:51:52.925Z,1023.44
2018-05-06T01:52:52.788Z,1023.42
2018-05-06T01:53:52.746Z,1023.42
2018-05-06T01:54:52.869Z,1023.38
2018-05-06T01:55:52.790Z,1023.43
2018-05-06T01:56:52.760Z,1023.46
2018-05-06T01:57:52.850Z,1023.4
2018-05-06T01:58:52.743Z,1023.44
2018-05-06T01:59:52.742Z,1023.38
2018-05-06T02:00:53.755Z,1023.4
2018-05-06T02:01:52.813Z,1023.41
2018-05-06T02:02:52.778Z,1023.44
2018-05-06T02:03:52.788Z,1023.44
2018-05-06T02:04:52.866Z,1023.43
2018-05-06T02:05:52.758Z,1023.42
2018-05-06T02:06:52.751Z,1023.45
2018-05-06T02:07:52.781Z,1023.41
2018-05-06T02:08:52.784Z,1023.41
2018-05-06T02:09:52.779Z,1023.43
2018-05-06T02:10:52.778Z,1023.46
2018-05-06T02:11:52.790Z,1023.45
2018-05-06T02:12:52.791Z,1023.5
2018-05-06T02:13:52.790Z,1023.45
2018-05-06T02:14:52.863Z,1023.45
2018-05-06T02:15:52.804Z,1023.44
2018-05-06T02:16:52.767Z,1023.47
2018-05-06T02:17:52.766Z,1023.49
2018-05-06T02:18:52.789Z,1023.46
2018-05-06T02:19:52.913Z,1023.5
2018-05-06T02:20:52.793Z,1023.45
2018-05-06T02:21:52.803Z,1023.48
2018-05-06T02:22:52.767Z,1023.48
2018-05-06T02:23:52.832Z,1023.48
2018-05-06T02:24:52.783Z,1023.5
2018-05-06T02:25:52.880Z,1023.48
2018-05-06T02:26:52.766Z,1023.48
2018-05-06T02:27:52.952Z,1023.53
2018-05-06T02:28:52.782Z,1023.56
2018-05-06T02:29:52.780Z,1023.53
2018-05-06T02:30:52.799Z,1023.56
2018-05-06T02:31:52.920Z,1023.57
2018-05-06T02:32:52.783Z,1023.6
2018-05-06T02:33:52.786Z,1023.57
2018-05-06T02:34:52.931Z,1023.59
2018-05-06T02:35:52.766Z,1023.61
2018-05-06T02:36:52.764Z,1023.57
2018-05-06T02:37:52.816Z,1023.62
2018-05-06T02:38:52.765Z,1023.61
2018-05-06T02:39:52.786Z,1023.65
2018-05-06T02:40:52.772Z,1023.65
2018-05-06T02:41:52.792Z,1023.69
2018-05-06T02:42:52.780Z,1023.71
2018-05-06T02:43:52.802Z,1023.74
2018-05-06T02:44:52.787Z,1023.75
2018-05-06T02:45:52.765Z,1023.73
2018-05-06T02:46:52.789Z,1023.7
2018-05-06T02:47:52.809Z,1023.73
2018-05-06T02:48:52.803Z,1023.73
2018-05-06T02:49:53.865Z,1023.75
2018-05-06T02:50:52.765Z,1023.75
2018-05-06T02:51:52.772Z,1023.78
2018-05-06T02:52:52.781Z,1023.78
2018-05-06T02:53:52.781Z,1023.76
2018-05-06T02:54:52.810Z,1023.77
2018-05-06T02:55:52.766Z,1023.77
2018-05-06T02:56:52.813Z,1023.76
2018-05-06T02:57:52.786Z,1023.78
2018-05-06T02:58:52.805Z,1023.84
2018-05-06T02:59:52.888Z,1023.81
2018-05-06T03:00:52.798Z,1023.82
2018-05-06T03:01:52.814Z,1023.78
2018-05-06T03:02:52.804Z,1023.84
2018-05-06T03:03:52.894Z,1023.81
2018-05-06T03:04:52.906Z,1023.82
2018-05-06T03:05:52.827Z,1023.82
2018-05-06T03:06:52.803Z,1023.81
2018-05-06T03:07:52.798Z,1023.83
2018-05-06T03:08:52.795Z,1023.82
2018-05-06T03:09:52.810Z,1023.85
2018-05-06T03:10:52.811Z,1023.84
2018-05-06T03:11:52.824Z,1023.87
2018-05-06T03:12:52.832Z,1023.89
2018-05-06T03:13:52.902Z,1023.93
2018-05-06T03:14:52.878Z,1023.87
2018-05-06T03:15:52.807Z,1023.93
2018-05-06T03:16:52.811Z,1023.94
2018-05-06T03:17:52.863Z,1023.89
2018-05-06T03:18:52.902Z,1023.94
2018-05-06T03:19:52.839Z,1023.95
2018-05-06T03:20:52.856Z,1023.92
2018-05-06T03:21:52.817Z,1023.97
2018-05-06T03:22:52.792Z,1023.96
2018-05-06T03:23:52.804Z,1023.97
2018-05-06T03:24:52.869Z,1023.94
2018-05-06T03:25:52.903Z,1023.99
2018-05-06T03:26:52.871Z,1023.98
2018-05-06T03:27:52.824Z,1024.01
2018-05-06T03:28:52.907Z,1024.03
2018-05-06T03:29:52.843Z,1024.02
2018-05-06T03:30:52.815Z,1023.99
2018-05-06T03:31:52.848Z,1023.99
2018-05-06T03:32:52.828Z,1023.98
2018-05-06T03:33:52.858Z,1024
2018-05-06T03:34:52.839Z,1024.01
2018-05-06T03:35:52.814Z,1024.02
2018-05-06T03:36:52.828Z,1024.05
2018-05-06T03:37:52.856Z,1024.05
2018-05-06T03:38:52.804Z,1024.02
2018-05-06T03:39:52.880Z,1024.05
2018-05-06T03:40:52.919Z,1024.01
2018-05-06T03:41:52.817Z,1024.07
2018-05-06T03:42:52.820Z,1024.06
2018-05-06T03:43:52.835Z,1024.08
2018-05-06T03:44:52.851Z,1024.1
2018-05-06T03:45:52.827Z,1024.14
2018-05-06T03:46:52.846Z,1024.14
2018-05-06T03:47:52.839Z,1024.15
2018-05-06T03:48:52.818Z,1024.17
2018-05-06T03:49:52.876Z,1024.13
2018-05-06T03:50:52.842Z,1024.15
2018-05-06T03:51:52.829Z,1024.15
2018-05-06T03:52:52.823Z,1024.17
2018-05-06T03:53:52.853Z,1024.19
2018-05-06T03:54:52.829Z,1024.22
2018-05-06T03:55:52.843Z,1024.22
2018-05-06T03:56:52.800Z,1024.2
2018-05-06T03:57:52.858Z,1024.22
2018-05-06T03:58:52.806Z,1024.23
2018-05-06T03:59:52.837Z,1024.18
2018-05-06T04:00:52.850Z,1024.19
2018-05-06T04:01:52.822Z,1024.22
2018-05-06T04:02:52.821Z,1024.2
2018-05-06T04:03:52.859Z,1024.17
2018-05-06T04:04:52.847Z,1024.15
2018-05-06T04:05:53.050Z,1024.18
2018-05-06T04:06:52.865Z,1024.15
2018-05-06T04:07:52.898Z,1024.15
2018-05-06T04:08:52.851Z,1024.17
2018-05-06T04:09:52.827Z,1024.14
2018-05-06T04:10:52.979Z,1024.19
2018-05-06T04:11:52.845Z,1024.15
2018-05-06T04:12:52.837Z,1024.16
2018-05-06T04:13:52.888Z,1024.16
2018-05-06T04:14:52.830Z,1024.13
2018-05-06T04:15:52.904Z,1024.13
2018-05-06T04:16:52.809Z,1024.1
2018-05-06T04:17:52.879Z,1024.12
2018-05-06T04:18:52.875Z,1024.09
2018-05-06T04:19:52.817Z,1024.1
2018-05-06T04:20:52.879Z,1024.06
2018-05-06T04:21:52.812Z,1024.08
2018-05-06T04:22:52.834Z,1024.08
2018-05-06T04:23:52.885Z,1024.1
2018-05-06T04:24:52.894Z,1024.09
2018-05-06T04:25:52.881Z,1024.11
2018-05-06T04:26:52.936Z,1024.05
2018-05-06T04:27:52.898Z,1024.15
2018-05-06T04:28:52.829Z,1024.14
2018-05-06T04:29:52.837Z,1024.13
2018-05-06T04:30:52.902Z,1024.09
2018-05-06T04:31:52.824Z,1024.16
2018-05-06T04:32:53.030Z,1024.18
2018-05-06T04:33:52.901Z,1024.16
2018-05-06T04:34:52.853Z,1024.19
2018-05-06T04:35:52.866Z,1024.15
2018-05-06T04:36:52.880Z,1024.19
2018-05-06T04:37:52.888Z,1024.12
2018-05-06T04:38:52.833Z,1024.14
2018-05-06T04:39:52.848Z,1024.14
2018-05-06T04:40:52.883Z,1024.17
2018-05-06T04:41:52.864Z,1024.15
2018-05-06T04:42:52.854Z,1024.15
2018-05-06T04:43:52.869Z,1024.13
2018-05-06T04:44:52.950Z,1024.12
2018-05-06T04:45:52.896Z,1024.12
2018-05-06T04:46:52.877Z,1024.12
2018-05-06T04:47:52.870Z,1024.17
2018-05-06T04:48:52.857Z,1024.13
2018-05-06T04:49:52.891Z,1024.11
2018-05-06T04:50:53.057Z,1024.17
2018-05-06T04:51:52.833Z,1024.15
2018-05-06T04:52:52.864Z,1024.2
2018-05-06T04:53:52.848Z,1024.21
2018-05-06T04:54:52.843Z,1024.22
2018-05-06T04:55:52.876Z,1024.21
2018-05-06T04:56:52.853Z,1024.2
2018-05-06T04:57:52.842Z,1024.2
2018-05-06T04:58:52.838Z,1024.24
2018-05-06T04:59:52.847Z,1024.21
2018-05-06T05:00:52.861Z,1024.19
2018-05-06T05:01:52.847Z,1024.19
2018-05-06T05:02:52.838Z,1024.2
2018-05-06T05:03:52.868Z,1024.24
2018-05-06T05:04:52.833Z,1024.21
2018-05-06T05:05:52.883Z,1024.21
2018-05-06T05:06:52.859Z,1024.21
2018-05-06T05:07:52.846Z,1024.21
2018-05-06T05:08:52.853Z,1024.16
2018-05-06T05:09:52.885Z,1024.18
2018-05-06T05:10:52.873Z,1024.19
2018-05-06T05:11:52.905Z,1024.19
2018-05-06T05:12:52.878Z,1024.2
2018-05-06T05:13:52.885Z,1024.22
2018-05-06T05:14:52.847Z,1024.22
2018-05-06T05:15:52.901Z,1024.23
2018-05-06T05:16:52.960Z,1024.25
2018-05-06T05:17:52.950Z,1024.27
2018-05-06T05:18:52.890Z,1024.27
2018-05-06T05:19:52.864Z,1024.29
2018-05-06T05:20:53.028Z,1024.29
2018-05-06T05:21:52.914Z,1024.28
2018-05-06T05:22:52.857Z,1024.31
2018-05-06T05:23:52.896Z,1024.35
2018-05-06T05:24:52.999Z,1024.34
2018-05-06T05:25:52.928Z,1024.33
2018-05-06T05:26:52.969Z,1024.35
2018-05-06T05:27:52.904Z,1024.3
2018-05-06T05:28:52.886Z,1024.3
2018-05-06T05:29:52.882Z,1024.3
2018-05-06T05:30:52.925Z,1024.31
2018-05-06T05:31:52.876Z,1024.31
2018-05-06T05:32:53.019Z,1024.31
2018-05-06T05:33:52.874Z,1024.32
2018-05-06T05:34:52.882Z,1024.33
2018-05-06T05:35:52.855Z,1024.32
2018-05-06T05:36:52.876Z,1024.29
2018-05-06T05:37:52.883Z,1024.31
2018-05-06T05:38:52.901Z,1024.35
2018-05-06T05:39:52.860Z,1024.36
2018-05-06T05:40:52.864Z,1024.37
2018-05-06T05:41:52.898Z,1024.43
2018-05-06T05:42:53.054Z,1024.43
2018-05-06T05:43:52.856Z,1024.42
2018-05-06T05:44:52.851Z,1024.44
2018-05-06T05:45:52.887Z,1024.47
2018-05-06T05:46:53.050Z,1024.47
2018-05-06T05:47:53.092Z,1024.46
2018-05-06T05:48:52.914Z,1024.43
2018-05-06T05:49:52.891Z,1024.43
2018-05-06T05:50:52.862Z,1024.41
2018-05-06T05:51:52.901Z,1024.41
2018-05-06T05:52:52.878Z,1024.41
2018-05-06T05:53:52.900Z,1024.4
2018-05-06T05:54:52.878Z,1024.38
2018-05-06T05:55:52.898Z,1024.4
2018-05-06T05:56:52.887Z,1024.42
2018-05-06T05:57:52.916Z,1024.4
2018-05-06T05:58:52.956Z,1024.4
2018-05-06T05:59:52.863Z,1024.4
2018-05-06T06:00:52.862Z,1024.42
2018-05-06T06:01:52.881Z,1024.4
2018-05-06T06:02:52.865Z,1024.43
2018-05-06T06:03:52.868Z,1024.45
2018-05-06T06:04:52.894Z,1024.39
2018-05-06T06:05:52.894Z,1024.41
2018-05-06T06:06:52.921Z,1024.36
2018-05-06T06:07:52.873Z,1024.39
2018-05-06T06:08:52.916Z,1024.38
2018-05-06T06:09:52.872Z,1024.41
2018-05-06T06:10:52.873Z,1024.41
2018-05-06T06:11:52.923Z,1024.38
2018-05-06T06:12:52.873Z,1024.4
2018-05-06T06:13:52.880Z,1024.43
2018-05-06T06:14:52.864Z,1024.41
2018-05-06T06:15:52.989Z,1024.43
2018-05-06T06:16:52.879Z,1024.41
2018-05-06T06:17:52.887Z,1024.45
2018-05-06T06:18:52.935Z,1024.43
2018-05-06T06:19:52.901Z,1024.4
2018-05-06T06:20:52.911Z,1024.43
2018-05-06T06:21:52.919Z,1024.42
2018-05-06T06:22:52.883Z,1024.42
2018-05-06T06:23:52.954Z,1024.39
2018-05-06T06:24:53.021Z,1024.37
2018-05-06T06:25:52.907Z,1024.4
2018-05-06T06:26:52.933Z,1024.37
2018-05-06T06:27:52.913Z,1024.34
2018-05-06T06:28:52.999Z,1024.35
2018-05-06T06:29:52.901Z,1024.28
2018-05-06T06:30:52.917Z,1024.29
2018-05-06T06:31:52.943Z,1024.28
2018-05-06T06:32:53.071Z,1024.33
2018-05-06T06:33:53.069Z,1024.33
2018-05-06T06:34:52.933Z,1024.36
2018-05-06T06:35:53.003Z,1024.35
2018-05-06T06:36:52.905Z,1024.38
2018-05-06T06:37:52.893Z,1024.39
2018-05-06T06:38:53.069Z,1024.39
2018-05-06T06:39:53.704Z,1024.38
2018-05-06T06:40:52.908Z,1024.39
2018-05-06T06:41:52.915Z,1024.38
2018-05-06T06:42:53.435Z,1024.39
2018-05-06T06:43:52.959Z,1024.39
2018-05-06T06:44:52.923Z,1024.37
2018-05-06T06:45:52.896Z,1024.35
2018-05-06T06:46:52.891Z,1024.35
2018-05-06T06:47:53.032Z,1024.31
2018-05-06T06:48:53.377Z,1024.3
2018-05-06T06:49:52.907Z,1024.31
2018-05-06T06:50:52.896Z,1024.32
2018-05-06T06:51:52.923Z,1024.31
2018-05-06T06:52:52.919Z,1024.33
2018-05-06T06:53:52.894Z,1024.34
2018-05-06T06:54:52.946Z,1024.3
2018-05-06T06:55:52.927Z,1024.38
2018-05-06T06:56:52.926Z,1024.4
2018-05-06T06:57:52.906Z,1024.4
2018-05-06T06:58:52.944Z,1024.39
2018-05-06T06:59:52.905Z,1024.45
2018-05-06T07:00:52.916Z,1024.45
2018-05-06T07:01:52.929Z,1024.41
2018-05-06T07:02:52.921Z,1024.46
2018-05-06T07:03:52.935Z,1024.46
2018-05-06T07:04:52.943Z,1024.47
2018-05-06T07:05:53.075Z,1024.51
2018-05-06T07:06:52.919Z,1024.45
2018-05-06T07:07:52.934Z,1024.46
2018-05-06T07:08:52.942Z,1024.47
2018-05-06T07:09:53.008Z,1024.46
2018-05-06T07:10:52.905Z,1024.46
2018-05-06T07:11:52.950Z,1024.46
2018-05-06T07:12:52.926Z,1024.51
2018-05-06T07:13:53.040Z,1024.57
2018-05-06T07:14:52.951Z,1024.56
2018-05-06T07:15:52.910Z,1024.58
2018-05-06T07:16:52.943Z,1024.57
2018-05-06T07:17:52.932Z,1024.54
2018-05-06T07:18:52.910Z,1024.54
2018-05-06T07:19:52.934Z,1024.54
2018-05-06T07:20:52.955Z,1024.55
2018-05-06T07:21:52.948Z,1024.51
2018-05-06T07:22:53.100Z,1024.53
2018-05-06T07:23:52.917Z,1024.53
2018-05-06T07:24:52.949Z,1024.45
2018-05-06T07:25:53.006Z,1024.47
2018-05-06T07:26:53.006Z,1024.52
2018-05-06T07:27:52.917Z,1024.51
2018-05-06T07:28:52.950Z,1024.49
2018-05-06T07:29:53.049Z,1024.5
2018-05-06T07:30:52.975Z,1024.48
2018-05-06T07:31:52.944Z,1024.48
2018-05-06T07:32:52.954Z,1024.51
2018-05-06T07:33:52.940Z,1024.51
2018-05-06T07:34:52.911Z,1024.51
2018-05-06T07:35:53.083Z,1024.46
2018-05-06T07:36:52.933Z,1024.47
2018-05-06T07:37:52.903Z,1024.46
2018-05-06T07:38:52.912Z,1024.49
2018-05-06T07:39:52.947Z,1024.41
2018-05-06T07:40:52.952Z,1024.41
2018-05-06T07:41:52.927Z,1024.44
2018-05-06T07:42:52.966Z,1024.42
2018-05-06T07:43:52.962Z,1024.43
2018-05-06T07:44:52.969Z,1024.41
2018-05-06T07:45:52.935Z,1024.39
2018-05-06T07:46:52.939Z,1024.36
2018-05-06T07:47:52.946Z,1024.35
2018-05-06T07:48:52.953Z,1024.36
2018-05-06T07:49:53.028Z,1024.35
2018-05-06T07:50:52.960Z,1024.35
2018-05-06T07:51:53.046Z,1024.34
2018-05-06T07:52:52.911Z,1024.32
2018-05-06T07:53:52.943Z,1024.32
2018-05-06T07:54:52.916Z,1024.31
2018-05-06T07:55:52.910Z,1024.33
2018-05-06T07:56:52.943Z,1024.34
2018-05-06T07:57:52.947Z,1024.37
2018-05-06T07:58:53.002Z,1024.38
2018-05-06T07:59:52.945Z,1024.36
2018-05-06T08:00:52.959Z,1024.37
2018-05-06T08:01:52.935Z,1024.35
2018-05-06T08:02:52.923Z,1024.38
2018-05-06T08:03:52.963Z,1024.37
2018-05-06T08:04:53.279Z,1024.39
2018-05-06T08:05:52.963Z,1024.38
2018-05-06T08:06:52.942Z,1024.39
2018-05-06T08:07:52.919Z,1024.34
2018-05-06T08:08:52.936Z,1024.36
2018-05-06T08:09:52.952Z,1024.28
2018-05-06T08:10:53.144Z,1024.36
2018-05-06T08:11:52.922Z,1024.3
2018-05-06T08:12:52.931Z,1024.3
2018-05-06T08:13:52.959Z,1024.34
2018-05-06T08:14:52.938Z,1024.35
2018-05-06T08:15:52.936Z,1024.37
2018-05-06T08:16:52.931Z,1024.29
2018-05-06T08:17:52.950Z,1024.35
2018-05-06T08:18:52.948Z,1024.29
2018-05-06T08:19:52.946Z,1024.32
2018-05-06T08:20:53.002Z,1024.24
2018-05-06T08:21:53.056Z,1024.27
2018-05-06T08:22:52.981Z,1024.24
2018-05-06T08:23:52.924Z,1024.24
2018-05-06T08:24:52.953Z,1024.26
2018-05-06T08:25:52.969Z,1024.28
2018-05-06T08:26:52.930Z,1024.21
2018-05-06T08:27:52.981Z,1024.26
2018-05-06T08:28:53.017Z,1024.22
2018-05-06T08:29:53.044Z,1024.19
2018-05-06T08:30:52.951Z,1024.2
2018-05-06T08:31:52.941Z,1024.19
2018-05-06T08:32:52.947Z,1024.18
2018-05-06T08:33:52.968Z,1024.19
2018-05-06T08:34:52.958Z,1024.19
2018-05-06T08:35:52.936Z,1024.2
2018-05-06T08:36:52.985Z,1024.19
2018-05-06T08:37:52.961Z,1024.17
2018-05-06T08:38:52.955Z,1024.16
2018-05-06T08:39:52.973Z,1024.15
2018-05-06T08:40:52.970Z,1024.15
2018-05-06T08:41:55.343Z,1024.12
2018-05-06T08:42:52.957Z,1024.11
2018-05-06T08:43:53.006Z,1024.09
2018-05-06T08:44:54.897Z,1024.08
2018-05-06T08:45:53.169Z,1024.07
2018-05-06T08:46:52.950Z,1024.04
2018-05-06T08:47:54.453Z,1024.02
2018-05-06T08:48:55.277Z,1024.01
2018-05-06T08:49:52.965Z,1024.04
2018-05-06T08:50:53.115Z,1024.08
2018-05-06T08:51:52.979Z,1024
2018-05-06T08:52:54.520Z,1023.99
2018-05-06T08:53:53.023Z,1023.98
2018-05-06T08:54:57.748Z,1024
2018-05-06T08:55:52.973Z,1023.96
2018-05-06T08:56:53.040Z,1023.97
2018-05-06T08:57:53.022Z,1023.99
2018-05-06T08:58:52.969Z,1023.95
2018-05-06T08:59:53.188Z,1023.91
2018-05-06T09:00:53.063Z,1023.89
2018-05-06T09:01:53.123Z,1023.86
2018-05-06T09:02:52.991Z,1023.86
2018-05-06T09:03:53.048Z,1023.84
2018-05-06T09:04:53.873Z,1023.83
2018-05-06T09:05:52.997Z,1023.86
2018-05-06T09:06:54.079Z,1023.81
2018-05-06T09:07:53.337Z,1023.81
2018-05-06T09:08:52.957Z,1023.83
2018-05-06T09:09:52.983Z,1023.83
2018-05-06T09:10:52.969Z,1023.74
2018-05-06T09:11:52.956Z,1023.76
2018-05-06T09:12:52.982Z,1023.75
2018-05-06T09:13:52.955Z,1023.72
2018-05-06T09:14:53.022Z,1023.71
2018-05-06T09:15:52.975Z,1023.7
2018-05-06T09:16:53.670Z,1023.71
2018-05-06T09:17:53.316Z,1023.72
2018-05-06T09:18:53.093Z,1023.71
2018-05-06T09:19:53.079Z,1023.69
2018-05-06T09:20:53.042Z,1023.7
2018-05-06T09:21:53.016Z,1023.67
2018-05-06T09:22:53.009Z,1023.66
2018-05-06T09:23:53.087Z,1023.66
2018-05-06T09:24:52.989Z,1023.65
2018-05-06T09:25:53.016Z,1023.67
2018-05-06T09:26:54.438Z,1023.63
2018-05-06T09:27:55.628Z,1023.6
2018-05-06T09:28:52.965Z,1023.61
2018-05-06T09:29:53.003Z,1023.58
2018-05-06T09:30:52.996Z,1023.56
2018-05-06T09:31:54.050Z,1023.54
2018-05-06T09:32:52.968Z,1023.54
2018-05-06T09:33:53.080Z,1023.58
2018-05-06T09:34:53.071Z,1023.54
2018-05-06T09:35:53.002Z,1023.56
2018-05-06T09:36:52.992Z,1023.57
2018-05-06T09:37:53.010Z,1023.53
2018-05-06T09:38:52.994Z,1023.56
2018-05-06T09:39:52.994Z,1023.52
2018-05-06T09:40:53.015Z,1023.52
2018-05-06T09:41:53.011Z,1023.59
2018-05-06T09:42:52.994Z,1023.54
2018-05-06T09:43:52.993Z,1023.55
2018-05-06T09:44:53.017Z,1023.48
2018-05-06T09:45:52.991Z,1023.47
2018-05-06T09:46:53.107Z,1023.5
2018-05-06T09:47:53.134Z,1023.54
2018-05-06T09:48:52.999Z,1023.51
2018-05-06T09:49:53.202Z,1023.5
2018-05-06T09:50:52.985Z,1023.5
2018-05-06T09:51:53.034Z,1023.47
2018-05-06T09:52:53.002Z,1023.5
2018-05-06T09:53:53.217Z,1023.46
2018-05-06T09:54:53.194Z,1023.48
2018-05-06T09:55:53.024Z,1023.43
2018-05-06T09:56:52.987Z,1023.49
2018-05-06T09:57:53.105Z,1023.46
2018-05-06T09:58:53.029Z,1023.45
2018-05-06T09:59:53.003Z,1023.42
2018-05-06T10:00:52.985Z,1023.4
2018-05-06T10:01:53.072Z,1023.39
2018-05-06T10:02:52.994Z,1023.36
2018-05-06T10:03:52.983Z,1023.36
2018-05-06T10:04:53.046Z,1023.33
2018-05-06T10:06:53.230Z,1023.4
2018-05-06T10:07:53.055Z,1023.38
2018-05-06T10:08:53.023Z,1023.4
2018-05-06T10:09:53.022Z,1023.38
2018-05-06T10:10:53.146Z,1023.36
2018-05-06T10:11:53.133Z,1023.35
2018-05-06T10:12:53.112Z,1023.3
2018-05-06T10:13:53.020Z,1023.31
2018-05-06T10:14:53.182Z,1023.27
2018-05-06T10:15:53.124Z,1023.32
2018-05-06T10:16:53.205Z,1023.29
2018-05-06T10:17:53.088Z,1023.32
2018-05-06T10:18:53.097Z,1023.33
2018-05-06T10:19:53.133Z,1023.21
2018-05-06T10:20:53.040Z,1023.2
2018-05-06T10:21:53.183Z,1023.21
2018-05-06T10:22:53.026Z,1023.25
2018-05-06T10:23:53.046Z,1023.18
2018-05-06T10:24:53.249Z,1023.15
2018-05-06T10:25:53.010Z,1023.16
2018-05-06T10:26:53.019Z,1023.13
2018-05-06T10:27:53.169Z,1023.18
2018-05-06T10:28:53.174Z,1023.14
2018-05-06T10:29:56.045Z,1023.14
2018-05-06T10:30:53.062Z,1023.12
2018-05-06T10:31:53.195Z,1023.17
2018-05-06T10:32:53.301Z,1023.09
2018-05-06T10:33:53.025Z,1023.1
2018-05-06T10:34:53.210Z,1023.07
2018-05-06T10:35:53.074Z,1023.1
2018-05-06T10:36:53.119Z,1023.1
2018-05-06T10:37:53.026Z,1023.12
2018-05-06T10:38:53.221Z,1023.09
2018-05-06T10:39:53.248Z,1023.07
2018-05-06T10:40:53.036Z,1023.07
2018-05-06T10:41:53.257Z,1023.06
2018-05-06T10:42:53.040Z,1023.07
2018-05-06T10:43:53.109Z,1023.12
2018-05-06T10:44:53.228Z,1023.07
2018-05-06T10:45:53.214Z,1023.13
2018-05-06T10:46:53.223Z,1023.1
2018-05-06T10:47:53.199Z,1023.12
2018-05-06T10:48:53.244Z,1023.03
2018-05-06T10:49:53.122Z,1023.08
2018-05-06T10:50:53.207Z,1023.09
2018-05-06T10:51:53.124Z,1023.08
2018-05-06T10:52:53.045Z,1023.14
2018-05-06T10:53:53.036Z,1023.13
2018-05-06T10:54:53.560Z,1023.05
2018-05-06T10:55:53.246Z,1023.04
2018-05-06T10:56:53.263Z,1023.03
2018-05-06T10:57:53.432Z,1023.01
2018-05-06T10:58:53.056Z,1022.99
2018-05-06T10:59:53.043Z,1023
2018-05-06T11:00:53.497Z,1022.97
2018-05-06T11:01:53.060Z,1022.93
2018-05-06T11:02:53.026Z,1022.93
2018-05-06T11:03:53.105Z,1022.91
2018-05-06T11:04:53.086Z,1022.9
2018-05-06T11:05:53.034Z,1022.75
2018-05-06T11:06:53.035Z,1022.78
2018-05-06T11:07:53.045Z,1022.8
2018-05-06T11:08:53.073Z,1022.81
2018-05-06T11:09:53.051Z,1022.78
2018-05-06T11:10:53.081Z,1022.75
2018-05-06T11:11:53.058Z,1022.74
2018-05-06T11:12:53.182Z,1022.63
2018-05-06T11:13:53.071Z,1022.66
2018-05-06T11:14:53.189Z,1022.62
2018-05-06T11:15:53.046Z,1022.58
2018-05-06T11:16:53.053Z,1022.57
2018-05-06T11:17:53.789Z,1022.5
2018-05-06T11:18:53.391Z,1022.51
2018-05-06T11:19:53.123Z,1022.5
2018-05-06T11:20:53.217Z,1022.5
2018-05-06T11:21:53.074Z,1022.51
2018-05-06T11:22:53.317Z,1022.53
2018-05-06T11:23:53.244Z,1022.5
2018-05-06T11:24:53.064Z,1022.56
2018-05-06T11:25:53.065Z,1022.49
2018-05-06T11:26:53.067Z,1022.5
2018-05-06T11:27:53.066Z,1022.51
2018-05-06T11:28:53.100Z,1022.48
2018-05-06T11:29:53.049Z,1022.51
2018-05-06T11:30:53.076Z,1022.48
2018-05-06T11:31:53.188Z,1022.45
2018-05-06T11:32:53.090Z,1022.42
2018-05-06T11:33:53.051Z,1022.41
2018-05-06T11:34:53.111Z,1022.44
2018-05-06T11:35:53.065Z,1022.4
2018-05-06T11:36:53.072Z,1022.37
2018-05-06T11:37:53.065Z,1022.41
2018-05-06T11:38:53.073Z,1022.45
2018-05-06T11:39:53.079Z,1022.43
2018-05-06T11:40:53.116Z,1022.38
2018-05-06T11:41:53.094Z,1022.36
2018-05-06T11:42:53.114Z,1022.4
2018-05-06T11:43:53.082Z,1022.38
2018-05-06T11:44:53.092Z,1022.39
2018-05-06T11:45:53.105Z,1022.41
2018-05-06T11:46:53.125Z,1022.39
2018-05-06T11:47:53.081Z,1022.37
2018-05-06T11:48:53.076Z,1022.38
2018-05-06T11:49:53.097Z,1022.37
2018-05-06T11:50:53.080Z,1022.36
2018-05-06T11:51:53.108Z,1022.34
2018-05-06T11:53:53.134Z,1022.28
2018-05-06T11:54:53.200Z,1022.28
2018-05-06T11:55:53.359Z,1022.31
2018-05-06T11:56:53.095Z,1022.29
2018-05-06T11:57:53.083Z,1022.28
2018-05-06T11:58:53.068Z,1022.3
2018-05-06T11:59:53.129Z,1022.32
2018-05-06T12:00:53.082Z,1022.27
2018-05-06T12:01:53.096Z,1022.21
2018-05-06T12:02:53.110Z,1022.22
2018-05-06T12:03:53.101Z,1022.22
2018-05-06T12:04:53.106Z,1022.21
2018-05-06T12:05:53.111Z,1022.15
2018-05-06T12:06:53.105Z,1022.18
2018-05-06T12:07:53.082Z,1022.21
2018-05-06T12:08:53.109Z,1022.17
2018-05-06T12:09:53.176Z,1022.11
2018-05-06T12:10:53.086Z,1022.13